createdAt,value
2016-12-24T00:00:34.883Z,0
2016-12-24T00:01:43.789Z,0
2016-12-24T00:02:52.369Z,0
2016-12-24T00:04:00.947Z,0
2016-12-24T00:05:09.531Z,0
2016-12-24T00:06:18.519Z,0
2016-12-24T00:07:27.100Z,0
2016-12-24T00:08:35.669Z,0
2016-12-24T00:09:44.237Z,0
2016-12-24T00:10:52.827Z,0
2016-12-24T00:12:02.771Z,0
2016-12-24T00:13:11.998Z,0
2016-12-24T00:14:21.215Z,0
2016-12-24T00:15:29.797Z,0
2016-12-24T00:16:38.731Z,0
2016-12-24T00:17:47.673Z,0
2016-12-24T00:18:56.254Z,0
2016-12-24T00:20:04.840Z,0
2016-12-24T00:21:13.423Z,0
2016-12-24T00:22:22.028Z,0
2016-12-24T00:23:31.599Z,0
2016-12-24T00:24:40.821Z,0
2016-12-24T00:25:49.392Z,0
2016-12-24T00:26:58.275Z,0
2016-12-24T00:28:06.862Z,0
2016-12-24T00:29:16.113Z,0
2016-12-24T00:30:25.020Z,0
2016-12-24T00:31:33.915Z,0
2016-12-24T00:32:42.798Z,0
2016-12-24T00:33:51.375Z,0
2016-12-24T00:35:00.477Z,0
2016-12-24T00:36:09.699Z,0
2016-12-24T00:37:18.636Z,0
2016-12-24T00:38:27.237Z,0
2016-12-24T00:39:35.826Z,0
2016-12-24T00:40:44.612Z,0
2016-12-24T00:41:53.527Z,0
2016-12-24T00:43:02.440Z,0
2016-12-24T00:44:11.006Z,0
2016-12-24T00:45:20.220Z,0
2016-12-24T00:46:29.528Z,0
2016-12-24T00:47:38.417Z,0
2016-12-24T00:48:47.635Z,0
2016-12-24T00:49:56.240Z,0
2016-12-24T00:51:04.820Z,0
2016-12-24T00:52:14.121Z,0
2016-12-24T00:53:22.706Z,0
2016-12-24T00:54:31.293Z,0
2016-12-24T00:55:39.879Z,0
2016-12-24T00:56:48.771Z,0
2016-12-24T00:57:58.453Z,0
2016-12-24T00:59:07.671Z,0
2016-12-24T01:00:16.562Z,0
2016-12-24T01:01:25.464Z,0
2016-12-24T01:02:34.359Z,0
2016-12-24T01:03:43.411Z,0
2016-12-24T01:04:52.001Z,0
2016-12-24T01:06:00.591Z,0
2016-12-24T01:07:09.169Z,0
2016-12-24T01:08:17.756Z,0
2016-12-24T01:09:26.788Z,0
2016-12-24T01:10:36.021Z,0
2016-12-24T01:11:44.932Z,0
2016-12-24T01:12:53.842Z,0
2016-12-24T01:14:02.428Z,0
2016-12-24T01:15:11.355Z,0
2016-12-24T01:16:20.265Z,0
2016-12-24T01:17:29.485Z,0
2016-12-24T01:18:38.742Z,0
2016-12-24T01:19:47.634Z,0
2016-12-24T01:20:56.628Z,0
2016-12-24T01:22:05.206Z,0
2016-12-24T01:23:13.790Z,0
2016-12-24T01:24:22.687Z,0
2016-12-24T01:25:31.280Z,0
2016-12-24T01:26:40.564Z,0
2016-12-24T01:27:49.154Z,0
2016-12-24T01:28:57.750Z,0
2016-12-24T01:30:06.970Z,0
2016-12-24T01:31:15.553Z,0
2016-12-24T01:32:24.478Z,0
2016-12-24T01:33:33.052Z,0
2016-12-24T01:34:41.633Z,0
2016-12-24T01:35:50.533Z,0
2016-12-24T01:36:59.112Z,0
2016-12-24T01:38:08.071Z,0
2016-12-24T01:39:16.964Z,0
2016-12-24T01:40:25.542Z,0
2016-12-24T01:41:34.435Z,0
2016-12-24T01:42:43.342Z,0
2016-12-24T01:43:52.906Z,0
2016-12-24T01:45:01.815Z,0
2016-12-24T01:46:11.061Z,0
2016-12-24T01:47:19.955Z,0
2016-12-24T01:48:29.204Z,0
2016-12-24T01:49:38.136Z,0
2016-12-24T01:50:47.048Z,0
2016-12-24T01:51:55.635Z,0
2016-12-24T01:53:04.213Z,0
2016-12-24T01:54:13.125Z,0
2016-12-24T01:55:22.078Z,0
2016-12-24T01:56:30.662Z,0
2016-12-24T01:57:39.233Z,0
2016-12-24T01:58:47.823Z,0
2016-12-24T01:59:56.749Z,0
2016-12-24T02:01:06.002Z,0
2016-12-24T02:02:14.901Z,0
2016-12-24T02:03:23.493Z,0
2016-12-24T02:04:32.084Z,0
2016-12-24T02:05:40.667Z,0
2016-12-24T02:06:50.225Z,0
2016-12-24T02:07:59.447Z,0
2016-12-24T02:09:08.011Z,0
2016-12-24T02:10:16.592Z,0
2016-12-24T02:11:25.815Z,0
2016-12-24T02:12:35.395Z,0
2016-12-24T02:13:43.993Z,0
2016-12-24T02:14:52.905Z,0
2016-12-24T02:16:01.494Z,0
2016-12-24T02:17:10.402Z,0
2016-12-24T02:18:19.698Z,0
2016-12-24T02:19:28.623Z,0
2016-12-24T02:20:37.840Z,0
2016-12-24T02:21:46.732Z,0
2016-12-24T02:22:55.961Z,0
2016-12-24T02:24:05.219Z,0
2016-12-24T02:25:13.795Z,0
2016-12-24T02:26:22.702Z,0
2016-12-24T02:27:31.285Z,0
2016-12-24T02:28:40.505Z,0
2016-12-24T02:29:49.485Z,0
2016-12-24T02:30:58.078Z,0
2016-12-24T02:32:06.670Z,0
2016-12-24T02:33:15.268Z,0
2016-12-24T02:34:24.164Z,0
2016-12-24T02:35:33.098Z,0
2016-12-24T02:36:42.329Z,0
2016-12-24T02:37:50.917Z,0
2016-12-24T02:38:59.820Z,0
2016-12-24T02:40:09.359Z,0
2016-12-24T02:41:18.935Z,0
2016-12-24T02:42:27.520Z,0
2016-12-24T02:43:36.728Z,0
2016-12-24T02:44:45.976Z,0
2016-12-24T02:45:54.562Z,0
2016-12-24T02:47:03.503Z,0
2016-12-24T02:48:12.433Z,0
2016-12-24T02:49:21.337Z,0
2016-12-24T02:50:29.905Z,0
2016-12-24T02:51:38.794Z,0
2016-12-24T02:52:48.039Z,0
2016-12-24T02:53:56.941Z,0
2016-12-24T02:55:06.487Z,0
2016-12-24T02:56:15.081Z,0
2016-12-24T02:57:23.973Z,0
2016-12-24T02:58:33.218Z,0
2016-12-24T02:59:41.791Z,0
2016-12-24T03:00:50.701Z,0
2016-12-24T03:01:59.601Z,0
2016-12-24T03:03:08.500Z,0
2016-12-24T03:04:17.423Z,0
2016-12-24T03:05:26.319Z,0
2016-12-24T03:06:35.552Z,0
2016-12-24T03:07:44.129Z,0
2016-12-24T03:08:53.030Z,0
2016-12-24T03:10:01.980Z,0
2016-12-24T03:11:10.885Z,0
2016-12-24T03:12:20.099Z,0
2016-12-24T03:13:29.317Z,0
2016-12-24T03:14:37.902Z,0
2016-12-24T03:15:47.156Z,0
2016-12-24T03:16:56.063Z,0
2016-12-24T03:18:05.614Z,0
2016-12-24T03:19:14.533Z,0
2016-12-24T03:20:23.128Z,0
2016-12-24T03:21:32.831Z,0
2016-12-24T03:22:41.736Z,0
2016-12-24T03:23:50.631Z,0
2016-12-24T03:24:59.198Z,0
2016-12-24T03:26:07.780Z,0
2016-12-24T03:27:17.529Z,0
2016-12-24T03:28:26.110Z,0
2016-12-24T03:29:35.028Z,0
2016-12-24T03:30:43.947Z,0
2016-12-24T03:31:52.529Z,0
2016-12-24T03:33:01.460Z,0
2016-12-24T03:34:10.692Z,0
2016-12-24T03:35:19.600Z,0
2016-12-24T03:36:28.183Z,0
2016-12-24T03:37:36.757Z,0
2016-12-24T03:38:45.379Z,0
2016-12-24T03:39:53.950Z,0
2016-12-24T03:41:02.850Z,0
2016-12-24T03:42:12.071Z,0
2016-12-24T03:43:20.983Z,0
2016-12-24T03:44:30.273Z,0
2016-12-24T03:45:39.164Z,0
2016-12-24T03:46:47.749Z,0
2016-12-24T03:47:56.334Z,0
2016-12-24T03:49:04.900Z,0
2016-12-24T03:50:14.172Z,0
2016-12-24T03:51:23.086Z,0
2016-12-24T03:52:31.677Z,0
2016-12-24T03:53:40.256Z,0
2016-12-24T03:54:49.168Z,0
2016-12-24T03:55:58.409Z,0
2016-12-24T03:57:07.309Z,0
2016-12-24T03:58:16.221Z,0
2016-12-24T03:59:24.796Z,0
2016-12-24T04:00:33.390Z,0
2016-12-24T04:01:42.972Z,0
2016-12-24T04:02:52.209Z,0
2016-12-24T04:04:00.790Z,0
2016-12-24T04:05:09.371Z,0
2016-12-24T04:06:18.598Z,0
2016-12-24T04:07:28.175Z,0
2016-12-24T04:08:36.752Z,0
2016-12-24T04:09:45.317Z,0
2016-12-24T04:10:53.897Z,0
2016-12-24T04:12:03.124Z,0
2016-12-24T04:13:12.507Z,0
2016-12-24T04:14:21.745Z,0
2016-12-24T04:15:30.338Z,0
2016-12-24T04:16:38.926Z,0
2016-12-24T04:17:47.501Z,0
2016-12-24T04:18:56.757Z,0
2016-12-24T04:20:05.333Z,0
2016-12-24T04:21:13.909Z,0
2016-12-24T04:22:23.471Z,0
2016-12-24T04:23:33.025Z,0
2016-12-24T04:24:42.609Z,0
2016-12-24T04:25:51.530Z,0
2016-12-24T04:27:00.105Z,0
2016-12-24T04:28:09.005Z,0
2016-12-24T04:29:17.576Z,0
2016-12-24T04:30:26.610Z,0
2016-12-24T04:31:35.185Z,0
2016-12-24T04:32:43.775Z,0
2016-12-24T04:33:52.679Z,0
2016-12-24T04:35:01.260Z,0
2016-12-24T04:36:10.288Z,0
2016-12-24T04:37:18.866Z,0
2016-12-24T04:38:27.450Z,0
2016-12-24T04:39:36.369Z,0
2016-12-24T04:40:45.604Z,0
2016-12-24T04:41:54.912Z,0
2016-12-24T04:43:03.824Z,0
2016-12-24T04:44:12.417Z,0
2016-12-24T04:45:21.324Z,0
2016-12-24T04:46:30.223Z,0
2016-12-24T04:47:39.255Z,0
2016-12-24T04:48:48.159Z,0
2016-12-24T04:49:56.743Z,0
2016-12-24T04:51:05.334Z,0
2016-12-24T04:52:14.254Z,0
2016-12-24T04:53:23.504Z,0
2016-12-24T04:54:32.421Z,0
2016-12-24T04:55:41.333Z,0
2016-12-24T04:56:49.915Z,0
2016-12-24T04:57:58.815Z,0
2016-12-24T04:59:08.378Z,0
2016-12-24T05:00:17.279Z,0
2016-12-24T05:01:26.190Z,0
2016-12-24T05:02:34.763Z,0
2016-12-24T05:03:43.668Z,0
2016-12-24T05:04:52.920Z,0
2016-12-24T05:06:01.821Z,0
2016-12-24T05:07:10.404Z,0
2016-12-24T05:08:19.639Z,0
2016-12-24T05:09:28.540Z,0
2016-12-24T05:10:37.525Z,0
2016-12-24T05:11:46.110Z,0
2016-12-24T05:12:55.016Z,0
2016-12-24T05:14:03.940Z,0
2016-12-24T05:15:12.539Z,0
2016-12-24T05:16:21.850Z,0
2016-12-24T05:17:30.759Z,0
2016-12-24T05:18:39.347Z,0
2016-12-24T05:19:48.252Z,0
2016-12-24T05:20:56.837Z,0
2016-12-24T05:22:05.483Z,0
2016-12-24T05:23:14.401Z,0
2016-12-24T05:24:22.974Z,0
2016-12-24T05:25:31.565Z,0
2016-12-24T05:26:40.132Z,0
2016-12-24T05:27:49.063Z,0
2016-12-24T05:28:57.982Z,0
2016-12-24T05:30:06.875Z,0
2016-12-24T05:31:15.768Z,0
2016-12-24T05:32:24.351Z,0
2016-12-24T05:33:33.096Z,0
2016-12-24T05:34:42.007Z,0
2016-12-24T05:35:50.598Z,0
2016-12-24T05:36:59.828Z,0
2016-12-24T05:38:09.056Z,0
2016-12-24T05:39:18.677Z,0
2016-12-24T05:40:27.590Z,0
2016-12-24T05:41:36.523Z,0
2016-12-24T05:42:45.739Z,0
2016-12-24T05:43:54.652Z,0
2016-12-24T05:45:03.709Z,0
2016-12-24T05:46:12.294Z,0
2016-12-24T05:47:21.199Z,0
2016-12-24T05:48:29.783Z,0
2016-12-24T05:49:38.365Z,0
2016-12-24T05:50:47.344Z,0
2016-12-24T05:51:56.257Z,0
2016-12-24T05:53:05.160Z,0
2016-12-24T05:54:14.059Z,0
2016-12-24T05:55:22.971Z,0
2016-12-24T05:56:32.254Z,0
2016-12-24T05:57:41.489Z,0
2016-12-24T05:58:50.722Z,0
2016-12-24T05:59:59.286Z,0
2016-12-24T06:01:08.196Z,0
2016-12-24T06:02:17.449Z,0
2016-12-24T06:03:26.055Z,0
2016-12-24T06:04:34.962Z,0
2016-12-24T06:05:43.566Z,0
2016-12-24T06:06:52.161Z,0
2016-12-24T06:08:01.145Z,0
2016-12-24T06:09:10.065Z,0
2016-12-24T06:10:19.278Z,0
2016-12-24T06:11:27.858Z,0
2016-12-24T06:12:37.082Z,0
2016-12-24T06:13:46.321Z,0
2016-12-24T06:14:55.211Z,0
2016-12-24T06:16:04.116Z,0
2016-12-24T06:17:13.660Z,0
2016-12-24T06:18:22.879Z,0
2016-12-24T06:19:32.118Z,0
2016-12-24T06:20:41.017Z,0
2016-12-24T06:21:49.915Z,0
2016-12-24T06:22:59.134Z,0
2016-12-24T06:24:08.354Z,0
2016-12-24T06:25:17.297Z,0
2016-12-24T06:26:25.884Z,0
2016-12-24T06:27:34.465Z,0
2016-12-24T06:28:43.377Z,0
2016-12-24T06:29:51.948Z,0
2016-12-24T06:31:00.676Z,0
2016-12-24T06:32:09.584Z,0
2016-12-24T06:33:18.166Z,0
2016-12-24T06:34:27.090Z,0
2016-12-24T06:35:35.683Z,0
2016-12-24T06:36:44.709Z,0
2016-12-24T06:37:53.611Z,0
2016-12-24T06:39:02.532Z,0
2016-12-24T06:40:11.445Z,0
2016-12-24T06:41:20.685Z,0
2016-12-24T06:42:29.716Z,0
2016-12-24T06:43:38.610Z,0
2016-12-24T06:44:47.187Z,0
2016-12-24T06:45:56.090Z,0
2016-12-24T06:47:05.327Z,0
2016-12-24T06:48:14.279Z,0
2016-12-24T06:49:22.860Z,0
2016-12-24T06:50:32.073Z,0
2016-12-24T06:51:40.649Z,0
2016-12-24T06:52:49.222Z,0
2016-12-24T06:54:00.586Z,0
2016-12-24T06:55:09.483Z,0
2016-12-24T06:56:18.067Z,0
2016-12-24T06:57:26.955Z,0
2016-12-24T06:58:35.855Z,0
2016-12-24T06:59:44.786Z,0
2016-12-24T07:00:53.702Z,0
2016-12-24T07:02:02.296Z,0
2016-12-24T07:03:11.192Z,0
2016-12-24T07:04:20.096Z,0
2016-12-24T07:05:29.717Z,0
2016-12-24T07:06:38.623Z,0
2016-12-24T07:07:47.531Z,0
2016-12-24T07:08:56.115Z,0
2016-12-24T07:10:04.705Z,0
2016-12-24T07:11:13.645Z,0
2016-12-24T07:12:22.860Z,0
2016-12-24T07:13:31.439Z,0
2016-12-24T07:14:40.033Z,0
2016-12-24T07:15:48.620Z,0
2016-12-24T07:16:58.193Z,0
2016-12-24T07:18:07.093Z,0
2016-12-24T07:19:15.998Z,0
2016-12-24T07:20:24.578Z,0
2016-12-24T07:21:33.172Z,0
2016-12-24T07:22:42.100Z,0
2016-12-24T07:23:51.005Z,0
2016-12-24T07:25:00.222Z,0
2016-12-24T07:26:08.802Z,0
2016-12-24T07:27:18.015Z,0
2016-12-24T07:28:26.636Z,0
2016-12-24T07:29:35.538Z,0
2016-12-24T07:30:44.123Z,5
2016-12-24T07:31:52.701Z,5
2016-12-24T07:33:01.605Z,5
2016-12-24T07:34:10.934Z,5
2016-12-24T07:35:19.833Z,5
2016-12-24T07:36:29.075Z,5
2016-12-24T07:37:38.005Z,10
2016-12-24T07:38:46.583Z,10
2016-12-24T07:39:55.955Z,10
2016-12-24T07:41:04.524Z,10
2016-12-24T07:42:13.116Z,10
2016-12-24T07:43:22.667Z,15
2016-12-24T07:44:31.254Z,15
2016-12-24T07:45:40.190Z,15
2016-12-24T07:46:49.095Z,15
2016-12-24T07:47:57.676Z,20
2016-12-24T07:49:06.579Z,20
2016-12-24T07:50:15.152Z,20
2016-12-24T07:51:24.203Z,25
2016-12-24T07:52:32.784Z,25
2016-12-24T07:53:41.681Z,25
2016-12-24T07:54:50.246Z,25
2016-12-24T07:55:59.148Z,30
2016-12-24T07:57:08.118Z,30
2016-12-24T07:58:17.358Z,30
2016-12-24T07:59:25.938Z,30
2016-12-24T08:00:34.844Z,35
2016-12-24T08:01:43.756Z,35
2016-12-24T08:02:53.184Z,35
2016-12-24T08:04:01.779Z,40
2016-12-24T08:05:10.676Z,40
2016-12-24T08:06:19.595Z,45
2016-12-24T08:07:28.499Z,45
2016-12-24T08:08:37.772Z,50
2016-12-24T08:09:46.353Z,50
2016-12-24T08:10:54.951Z,55
2016-12-24T08:12:04.172Z,55
2016-12-24T08:13:13.065Z,60
2016-12-24T08:14:22.370Z,60
2016-12-24T08:15:30.962Z,65
2016-12-24T08:16:39.866Z,65
2016-12-24T08:17:49.084Z,70
2016-12-24T08:18:57.986Z,70
2016-12-24T08:20:07.241Z,75
2016-12-24T08:21:16.153Z,75
2016-12-24T08:22:25.368Z,75
2016-12-24T08:23:33.956Z,75
2016-12-24T08:24:42.851Z,80
2016-12-24T08:25:51.797Z,80
2016-12-24T08:27:00.378Z,80
2016-12-24T08:28:09.282Z,80
2016-12-24T08:29:17.864Z,80
2016-12-24T08:30:27.117Z,80
2016-12-24T08:31:36.159Z,85
2016-12-24T08:32:45.061Z,85
2016-12-24T08:33:53.969Z,85
2016-12-24T08:35:02.566Z,90
2016-12-24T08:36:11.474Z,95
2016-12-24T08:37:20.742Z,100
2016-12-24T08:38:29.634Z,105
2016-12-24T08:39:38.863Z,110
2016-12-24T08:40:48.093Z,120
2016-12-24T08:41:56.680Z,130
2016-12-24T08:43:05.938Z,140
2016-12-24T08:44:14.862Z,150
2016-12-24T08:45:23.754Z,165
2016-12-24T08:46:32.669Z,175
2016-12-24T08:47:41.586Z,185
2016-12-24T08:48:50.609Z,190
2016-12-24T08:49:59.508Z,190
2016-12-24T08:51:08.401Z,190
2016-12-24T08:52:17.633Z,190
2016-12-24T08:53:26.528Z,195
2016-12-24T08:54:35.782Z,200
2016-12-24T08:55:44.989Z,205
2016-12-24T08:56:53.576Z,205
2016-12-24T08:58:02.200Z,200
2016-12-24T08:59:11.427Z,200
2016-12-24T09:00:20.458Z,210
2016-12-24T09:01:29.673Z,230
2016-12-24T09:02:38.263Z,245
2016-12-24T09:03:47.166Z,260
2016-12-24T09:04:56.094Z,285
2016-12-24T09:06:05.449Z,295
2016-12-24T09:07:14.351Z,285
2016-12-24T09:08:23.910Z,270
2016-12-24T09:09:32.802Z,260
2016-12-24T09:10:41.402Z,260
2016-12-24T09:11:51.039Z,275
2016-12-24T09:12:59.617Z,295
2016-12-24T09:14:08.833Z,305
2016-12-24T09:15:18.040Z,300
2016-12-24T09:16:26.613Z,285
2016-12-24T09:17:35.865Z,270
2016-12-24T09:18:44.441Z,270
2016-12-24T09:19:53.059Z,280
2016-12-24T09:21:02.304Z,295
2016-12-24T09:22:11.218Z,300
2016-12-24T09:23:20.743Z,285
2016-12-24T09:24:29.326Z,275
2016-12-24T09:25:37.909Z,260
2016-12-24T09:26:46.487Z,260
2016-12-24T09:27:55.067Z,275
2016-12-24T09:29:03.994Z,275
2016-12-24T09:30:13.217Z,275
2016-12-24T09:31:22.121Z,270
2016-12-24T09:32:30.733Z,280
2016-12-24T09:33:39.635Z,285
2016-12-24T09:34:48.829Z,285
2016-12-24T09:35:58.062Z,285
2016-12-24T09:37:06.984Z,275
2016-12-24T09:38:15.561Z,270
2016-12-24T09:39:25.120Z,280
2016-12-24T09:40:34.425Z,280
2016-12-24T09:41:43.332Z,280
2016-12-24T09:42:52.232Z,280
2016-12-24T09:44:01.127Z,275
2016-12-24T09:45:10.349Z,265
2016-12-24T09:46:19.341Z,260
2016-12-24T09:47:27.927Z,270
2016-12-24T09:48:36.513Z,280
2016-12-24T09:49:45.448Z,305
2016-12-24T09:50:54.357Z,285
2016-12-24T09:52:03.041Z,280
2016-12-24T09:53:11.616Z,275
2016-12-24T09:54:20.853Z,265
2016-12-24T09:55:29.432Z,265
2016-12-24T09:56:38.018Z,265
2016-12-24T09:57:47.295Z,280
2016-12-24T09:58:55.871Z,265
2016-12-24T10:00:05.418Z,270
2016-12-24T10:01:14.000Z,270
2016-12-24T10:02:22.585Z,265
2016-12-24T10:03:31.855Z,260
2016-12-24T10:04:40.758Z,260
2016-12-24T10:05:49.643Z,255
2016-12-24T10:06:58.550Z,250
2016-12-24T10:08:07.152Z,240
2016-12-24T10:09:16.415Z,230
2016-12-24T10:10:25.321Z,225
2016-12-24T10:11:34.225Z,225
2016-12-24T10:12:43.137Z,220
2016-12-24T10:13:52.360Z,220
2016-12-24T10:15:01.102Z,220
2016-12-24T10:16:10.017Z,220
2016-12-24T10:17:19.575Z,210
2016-12-24T10:18:28.822Z,190
2016-12-24T10:19:37.723Z,180
2016-12-24T10:20:47.030Z,175
2016-12-24T10:21:55.621Z,170
2016-12-24T10:23:04.861Z,175
2016-12-24T10:24:13.773Z,195
2016-12-24T10:25:22.680Z,220
2016-12-24T10:26:31.738Z,245
2016-12-24T10:27:40.308Z,270
2016-12-24T10:28:48.885Z,285
2016-12-24T10:29:57.794Z,295
2016-12-24T10:31:06.703Z,295
2016-12-24T10:32:15.748Z,300
2016-12-24T10:33:24.334Z,285
2016-12-24T10:34:32.916Z,285
2016-12-24T10:35:41.512Z,300
2016-12-24T10:36:50.408Z,335
2016-12-24T10:37:59.679Z,345
2016-12-24T10:39:08.594Z,340
2016-12-24T10:40:17.505Z,345
2016-12-24T10:41:26.102Z,355
2016-12-24T10:42:35.012Z,350
2016-12-24T10:43:44.047Z,335
2016-12-24T10:44:52.636Z,335
2016-12-24T10:46:01.221Z,350
2016-12-24T10:47:09.816Z,375
2016-12-24T10:48:19.027Z,395
2016-12-24T10:49:28.327Z,405
2016-12-24T10:50:37.228Z,405
2016-12-24T10:51:45.798Z,390
2016-12-24T10:52:54.703Z,360
2016-12-24T10:54:03.953Z,330
2016-12-24T10:55:13.203Z,305
2016-12-24T10:56:21.782Z,290
2016-12-24T10:57:30.353Z,285
2016-12-24T10:58:39.257Z,280
2016-12-24T10:59:47.839Z,280
2016-12-24T11:00:57.414Z,290
2016-12-24T11:02:05.987Z,305
2016-12-24T11:03:14.909Z,315
2016-12-24T11:04:23.816Z,330
2016-12-24T11:05:32.401Z,350
2016-12-24T11:06:41.610Z,360
2016-12-24T11:07:50.204Z,365
2016-12-24T11:08:59.112Z,375
2016-12-24T11:10:07.702Z,370
2016-12-24T11:11:16.623Z,360
2016-12-24T11:12:25.904Z,345
2016-12-24T11:13:35.127Z,335
2016-12-24T11:14:44.045Z,340
2016-12-24T11:15:52.633Z,360
2016-12-24T11:17:01.539Z,370
2016-12-24T11:18:10.184Z,400
2016-12-24T11:19:19.416Z,435
2016-12-24T11:20:28.003Z,435
2016-12-24T11:21:36.917Z,430
2016-12-24T11:22:45.832Z,430
2016-12-24T11:23:54.870Z,425
2016-12-24T11:25:03.767Z,435
2016-12-24T11:26:12.358Z,430
2016-12-24T11:27:20.950Z,415
2016-12-24T11:28:29.854Z,390
2016-12-24T11:29:39.164Z,365
2016-12-24T11:30:48.077Z,340
2016-12-24T11:31:56.979Z,325
2016-12-24T11:33:05.569Z,325
2016-12-24T11:34:14.796Z,325
2016-12-24T11:35:24.149Z,330
2016-12-24T11:36:32.741Z,330
2016-12-24T11:37:41.671Z,300
2016-12-24T11:38:50.558Z,280
2016-12-24T11:39:59.135Z,290
2016-12-24T11:41:07.778Z,300
2016-12-24T11:42:16.672Z,300
2016-12-24T11:43:25.905Z,285
2016-12-24T11:44:34.499Z,270
2016-12-24T11:45:43.088Z,235
2016-12-24T11:46:52.346Z,245
2016-12-24T11:48:00.933Z,255
2016-12-24T11:49:09.528Z,250
2016-12-24T11:50:18.443Z,215
2016-12-24T11:51:27.014Z,180
2016-12-24T11:52:35.645Z,185
2016-12-24T11:53:44.554Z,185
2016-12-24T11:54:53.142Z,200
2016-12-24T11:56:01.725Z,185
2016-12-24T11:57:10.624Z,205
2016-12-24T11:58:19.617Z,215
2016-12-24T11:59:28.193Z,220
2016-12-24T12:00:37.414Z,240
2016-12-24T12:01:46.313Z,205
2016-12-24T12:02:55.206Z,205
2016-12-24T12:04:04.141Z,195
2016-12-24T12:05:13.055Z,190
2016-12-24T12:06:21.962Z,180
2016-12-24T12:07:30.560Z,175
2016-12-24T12:08:39.155Z,185
2016-12-24T12:09:48.088Z,190
2016-12-24T12:10:56.676Z,200
2016-12-24T12:12:05.260Z,200
2016-12-24T12:13:13.857Z,220
2016-12-24T12:14:22.759Z,245
2016-12-24T12:15:32.012Z,270
2016-12-24T12:16:40.926Z,275
2016-12-24T12:17:49.869Z,320
2016-12-24T12:18:58.449Z,320
2016-12-24T12:20:07.035Z,290
2016-12-24T12:21:15.984Z,295
2016-12-24T12:22:24.882Z,260
2016-12-24T12:23:33.474Z,230
2016-12-24T12:24:42.374Z,185
2016-12-24T12:25:50.966Z,195
2016-12-24T12:27:00.006Z,205
2016-12-24T12:28:08.587Z,225
2016-12-24T12:29:17.508Z,225
2016-12-24T12:30:26.097Z,260
2016-12-24T12:31:34.685Z,260
2016-12-24T12:32:43.619Z,270
2016-12-24T12:33:52.524Z,285
2016-12-24T12:35:01.111Z,260
2016-12-24T12:36:09.702Z,245
2016-12-24T12:37:18.621Z,225
2016-12-24T12:38:27.631Z,220
2016-12-24T12:39:36.541Z,210
2016-12-24T12:40:45.452Z,210
2016-12-24T12:41:54.381Z,210
2016-12-24T12:43:03.588Z,205
2016-12-24T12:44:12.566Z,185
2016-12-24T12:45:21.472Z,180
2016-12-24T12:46:30.368Z,170
2016-12-24T12:47:39.591Z,175
2016-12-24T12:48:48.183Z,175
2016-12-24T12:49:57.545Z,155
2016-12-24T12:51:06.132Z,180
2016-12-24T12:52:15.042Z,230
2016-12-24T12:53:23.625Z,255
2016-12-24T12:54:32.211Z,225
2016-12-24T12:55:41.190Z,235
2016-12-24T12:56:49.780Z,265
2016-12-24T12:57:59.313Z,270
2016-12-24T12:59:07.893Z,285
2016-12-24T13:00:16.800Z,245
2016-12-24T13:01:26.457Z,240
2016-12-24T13:02:35.363Z,220
2016-12-24T13:03:44.276Z,235
2016-12-24T13:04:53.170Z,295
2016-12-24T13:06:01.758Z,325
2016-12-24T13:07:11.411Z,360
2016-12-24T13:08:20.329Z,330
2016-12-24T13:09:28.930Z,310
2016-12-24T13:10:37.836Z,315
2016-12-24T13:11:46.757Z,300
2016-12-24T13:12:56.726Z,305
2016-12-24T13:14:05.638Z,300
2016-12-24T13:15:14.563Z,305
2016-12-24T13:16:23.468Z,310
2016-12-24T13:17:32.381Z,305
2016-12-24T13:18:41.981Z,295
2016-12-24T13:19:50.896Z,280
2016-12-24T13:20:59.819Z,270
2016-12-24T13:22:08.737Z,250
2016-12-24T13:23:17.631Z,240
2016-12-24T13:24:27.297Z,230
2016-12-24T13:25:36.215Z,215
2016-12-24T13:26:44.789Z,205
2016-12-24T13:27:53.684Z,200
2016-12-24T13:29:03.244Z,225
2016-12-24T13:30:12.209Z,245
2016-12-24T13:31:20.798Z,245
2016-12-24T13:32:29.401Z,265
2016-12-24T13:33:37.989Z,270
2016-12-24T13:34:46.593Z,265
2016-12-24T13:35:55.282Z,275
2016-12-24T13:37:04.495Z,285
2016-12-24T13:38:13.077Z,270
2016-12-24T13:39:21.670Z,250
2016-12-24T13:40:30.248Z,250
2016-12-24T13:41:39.622Z,240
2016-12-24T13:42:48.520Z,240
2016-12-24T13:43:57.743Z,230
2016-12-24T13:45:06.959Z,215
2016-12-24T13:46:15.868Z,205
2016-12-24T13:47:25.119Z,195
2016-12-24T13:48:33.727Z,180
2016-12-24T13:49:42.323Z,180
2016-12-24T13:50:50.902Z,185
2016-12-24T13:51:59.490Z,185
2016-12-24T13:53:08.227Z,190
2016-12-24T13:54:16.819Z,190
2016-12-24T13:55:25.722Z,180
2016-12-24T13:56:34.616Z,170
2016-12-24T13:57:43.195Z,165
2016-12-24T13:58:52.853Z,160
2016-12-24T14:00:01.444Z,155
2016-12-24T14:01:10.675Z,145
2016-12-24T14:02:19.256Z,135
2016-12-24T14:03:28.151Z,125
2016-12-24T14:04:37.843Z,115
2016-12-24T14:05:46.462Z,110
2016-12-24T14:06:55.062Z,100
2016-12-24T14:08:03.657Z,95
2016-12-24T14:09:12.248Z,95
2016-12-24T14:10:21.630Z,90
2016-12-24T14:11:30.217Z,90
2016-12-24T14:12:39.441Z,85
2016-12-24T14:13:48.660Z,80
2016-12-24T14:14:57.241Z,80
2016-12-24T14:16:06.183Z,80
2016-12-24T14:17:15.101Z,80
2016-12-24T14:18:24.012Z,80
2016-12-24T14:19:33.252Z,80
2016-12-24T14:20:42.459Z,80
2016-12-24T14:21:51.765Z,85
2016-12-24T14:23:00.688Z,85
2016-12-24T14:24:10.255Z,85
2016-12-24T14:25:19.788Z,80
2016-12-24T14:26:28.679Z,80
2016-12-24T14:27:37.304Z,75
2016-12-24T14:28:46.188Z,70
2016-12-24T14:29:54.770Z,70
2016-12-24T14:31:03.348Z,65
2016-12-24T14:32:11.940Z,65
2016-12-24T14:33:21.639Z,60
2016-12-24T14:34:30.541Z,60
2016-12-24T14:35:39.447Z,55
2016-12-24T14:36:48.023Z,55
2016-12-24T14:37:56.614Z,50
2016-12-24T14:39:05.645Z,50
2016-12-24T14:40:14.539Z,50
2016-12-24T14:41:24.071Z,45
2016-12-24T14:42:32.979Z,45
2016-12-24T14:43:41.870Z,45
2016-12-24T14:44:51.208Z,40
2016-12-24T14:45:59.808Z,35
2016-12-24T14:47:09.360Z,35
2016-12-24T14:48:18.269Z,30
2016-12-24T14:49:26.845Z,30
2016-12-24T14:50:35.792Z,25
2016-12-24T14:51:45.024Z,25
2016-12-24T14:52:53.628Z,20
2016-12-24T14:54:03.499Z,15
2016-12-24T14:55:12.399Z,15
2016-12-24T14:56:21.471Z,15
2016-12-24T14:57:30.059Z,15
2016-12-24T14:58:38.686Z,15
2016-12-24T14:59:47.276Z,10
2016-12-24T15:00:56.508Z,10
2016-12-24T15:02:05.773Z,10
2016-12-24T15:03:15.003Z,10
2016-12-24T15:04:23.590Z,10
2016-12-24T15:05:32.491Z,10
2016-12-24T15:06:41.404Z,10
2016-12-24T15:07:50.139Z,10
2016-12-24T15:08:58.720Z,10
2016-12-24T15:10:07.620Z,10
2016-12-24T15:11:16.522Z,5
2016-12-24T15:12:25.107Z,5
2016-12-24T15:13:33.787Z,5
2016-12-24T15:14:42.689Z,5
2016-12-24T15:15:51.269Z,5
2016-12-24T15:16:59.858Z,5
2016-12-24T15:18:08.441Z,5
2016-12-24T15:19:17.360Z,5
2016-12-24T15:20:25.946Z,5
2016-12-24T15:21:34.527Z,5
2016-12-24T15:22:43.448Z,0
2016-12-24T15:23:52.027Z,0
2016-12-24T15:25:01.399Z,0
2016-12-24T15:26:10.316Z,0
2016-12-24T15:27:19.216Z,0
2016-12-24T15:28:28.126Z,0
2016-12-24T15:29:36.710Z,0
2016-12-24T15:30:46.005Z,0
2016-12-24T15:31:54.591Z,0
2016-12-24T15:33:03.510Z,0
2016-12-24T15:34:12.724Z,0
2016-12-24T15:35:21.313Z,0
2016-12-24T15:36:30.297Z,0
2016-12-24T15:37:39.207Z,0
2016-12-24T15:38:48.130Z,0
2016-12-24T15:39:56.713Z,0
2016-12-24T15:41:05.297Z,0
2016-12-24T15:42:14.041Z,0
2016-12-24T15:43:22.956Z,0
2016-12-24T15:44:31.538Z,0
2016-12-24T15:45:40.122Z,0
2016-12-24T15:46:49.363Z,0
2016-12-24T15:47:58.628Z,0
2016-12-24T15:49:07.536Z,0
2016-12-24T15:50:16.442Z,0
2016-12-24T15:51:25.338Z,0
2016-12-24T15:52:33.929Z,0
2016-12-24T15:53:43.504Z,0
2016-12-24T15:54:52.406Z,0
2016-12-24T15:56:00.976Z,0
2016-12-24T15:57:09.568Z,0
2016-12-24T15:58:18.792Z,0
2016-12-24T15:59:28.123Z,0
2016-12-24T16:00:37.021Z,0
2016-12-24T16:01:45.919Z,0
2016-12-24T16:02:54.512Z,0
2016-12-24T16:04:03.106Z,0
2016-12-24T16:05:12.111Z,0
2016-12-24T16:06:20.696Z,0
2016-12-24T16:07:29.956Z,0
2016-12-24T16:08:38.530Z,0
2016-12-24T16:09:47.121Z,0
2016-12-24T16:10:56.453Z,0
2016-12-24T16:12:05.366Z,0
2016-12-24T16:13:14.275Z,0
2016-12-24T16:14:22.866Z,0
2016-12-24T16:15:31.770Z,0
2016-12-24T16:16:41.042Z,0
2016-12-24T16:17:50.266Z,0
2016-12-24T16:18:59.498Z,0
2016-12-24T16:20:08.087Z,0
2016-12-24T16:21:17.330Z,0
2016-12-24T16:22:25.970Z,0
2016-12-24T16:23:34.876Z,0
2016-12-24T16:24:43.785Z,0
2016-12-24T16:25:52.372Z,0
2016-12-24T16:27:00.960Z,0
2016-12-24T16:28:10.316Z,0
2016-12-24T16:29:18.895Z,0
2016-12-24T16:30:27.807Z,0